메인 페이지
METAR-TAF:

METAR-TAF

공항 :

타라와, 키리바시

본리키 국제공항

위도: 01-21N, 경도: 172-55E, 고도: 2m

현재 날씨관측

예보는 25분 전, 07:00시(UTC)에 발표되었습니다.
동북동11kt
온도 28°C
습도 84%
기압 1006 hPa
시정 10km 이상
고도 2000ft 상공 구름 조금
고도 30000ft 상공 구름 많음

METAR: NGTA 250700Z 07011KT 9999 FEW020 BKN300 28/25 Q1006

시각: 21:25 (07:25 UTC)

예보

예보는 1 시간 50분 전, 05:35시(UTC)에 발표되었습니다.
예보 대상 시간: 25일 06시부터 26일 06시까지 (UTC)
12kt
시정 10km 이상
고도 2500ft 상공 구름 조금
고도 5000ft 상공 구름 보통

TAF: NGTA 250535Z 2506/2606 09012KT 9999 FEW025 SCT050

4,000개 이상의 공항 관측 자료 및 예보 (METAR 및 TAF 보고).

지도상에서 검색 가능한 기상관측소가 노란 점과 빨간 점으로 표시되어 있습니다.

기상관측소 명을 보려면 표시 위로 마우스를 이동하세요.

날씨 관측과 예보를 보려면 클릭하세요.

지도 변경 : 확대하려면 엑스 표시가 있는 녹색 버튼, 축소하려면 빼기 표시가 있는 녹색 버튼, 다음 페이지의 지도를 보려면 녹색 화살표를 클릭하세요.


METAR-TAF: